Palm City, Florida
Current Conditions -  °F | °C
As of 7:15 PM on Friday 21 Nov 2014 (Local Time) from KSUA Reporting Station
Overcast Overcast  
Wind Chill: 72°   Ceiling: 3600
Heat Index: 72°   Visibility: 10mi
Dew Point: 59°   Wind: 17mph
Humidity: 64%   Direction: 60°ENE
Pressure: 30.22"   Gusts: 22mph
Location:  27.16°N, 80.27°W
Report Text: KSUA 220015Z AUTO 06015G19KT 10SM BKN036 OVC044 22/15 A3022 RMK AO2
Loading
Personal Weather Stations






























Interactive Weather Map New forecast layout! Learn more

10-Day Weather Forecast

Advertisements
Track Severe Weather on mobile